Time;durP1;ratioP1;P1;durP2;ratioP2;P2;SDS_P1;SDS_P2;PMS_P1;PMS_P2;Temp;Humidity;BMP_temperature;BMP_pressure;BME280_temperature;BME280_humidity;BME280_pressure;Samples;Min_cycle;Max_cycle;Signal;HPM_P1;HPM_P2
2022/06/09 00:01:53;;;;;;;9.50;6.75;;;;;;;;;;6276990;22;19991;-83
2022/06/09 00:04:31;;;;;;;12.55;7.68;;;;;;;;;;6282417;22;20004;-81
2022/06/09 00:07:07;;;;;;;33.42;19.45;;;;;;;;;;6277266;22;20338;-82
2022/06/09 00:09:44;;;;;;;15.45;9.93;;;;;;;;;;6275370;22;20018;-83
2022/06/09 00:12:09;;;;;;;10.05;5.80;;;;;;;;;;6274596;22;20334;-84
2022/06/09 00:14:35;;;;;;;8.85;5.03;;;;;;;;;;6276683;22;20027;-83
2022/06/09 00:17:01;;;;;;;9.73;5.50;;;;;;;;;;6249537;22;20003;-82
2022/06/09 00:19:27;;;;;;;7.25;5.10;;;;;;;;;;6279605;22;19996;-82
2022/06/09 00:21:53;;;;;;;10.57;5.15;;;;;;;;;;6276577;22;20027;-83
2022/06/09 00:24:18;;;;;;;5.72;4.70;;;;;;;;;;6279829;22;20004;-82
2022/06/09 00:26:44;;;;;;;8.23;5.15;;;;;;;;;;6284621;22;20011;-82
2022/06/09 00:29:09;;;;;;;11.38;5.30;;;;;;;;;;6277034;22;19999;-82
2022/06/09 00:31:35;;;;;;;9.75;4.57;;;;;;;;;;6276804;22;20008;-83
2022/06/09 00:34:00;;;;;;;6.97;5.30;;;;;;;;;;6276619;22;20339;-83
2022/06/09 00:36:25;;;;;;;7.13;5.20;;;;;;;;;;6276329;22;20000;-83
2022/06/09 00:38:51;;;;;;;7.95;5.07;;;;;;;;;;6278702;22;20003;-82
2022/06/09 00:41:16;;;;;;;7.97;4.70;;;;;;;;;;6287977;22;20086;-83
2022/06/09 00:43:43;;;;;;;6.70;4.95;;;;;;;;;;6282770;22;20074;-83
2022/06/09 00:46:19;;;;;;;6.13;4.32;;;;;;;;;;6291398;22;20059;-84
2022/06/09 00:48:50;;;;;;;11.30;4.70;;;;;;;;;;6279288;22;20004;-83
2022/06/09 00:51:39;;;;;;;11.98;4.80;;;;;;;;;;6275482;22;20003;-83
2022/06/09 00:54:08;;;;;;;7.00;4.90;;;;;;;;;;6253232;22;20086;-82
2022/06/09 00:56:33;;;;;;;9.18;4.97;;;;;;;;;;6275338;22;20000;-83
2022/06/09 00:58:59;;;;;;;6.57;4.55;;;;;;;;;;6250428;22;20334;-83
2022/06/09 01:01:24;;;;;;;6.28;4.55;;;;;;;;;;6282584;22;20079;-82
2022/06/09 01:04:01;;;;;;;5.93;4.55;;;;;;;;;;6285871;22;20010;-81
2022/06/09 01:06:48;;;;;;;5.43;4.20;;;;;;;;;;6284937;22;20027;-83
2022/06/09 01:09:19;;;;;;;6.95;5.00;;;;;;;;;;6248142;22;20083;-82
2022/06/09 01:11:46;;;;;;;9.13;4.72;;;;;;;;;;6276279;22;20023;-83
2022/06/09 01:14:15;;;;;;;5.95;4.78;;;;;;;;;;6274186;22;20423;-82
2022/06/09 01:17:15;;;;;;;10.52;4.53;;;;;;;;;;6274471;22;20480;-83
2022/06/09 01:19:56;;;;;;;;;;;;;;;;;;6247586;22;20011;-82
2022/06/09 01:22:36;;;;;;;7.22;4.85;;;;;;;;;;6277496;22;19907;-82
2022/06/09 01:25:13;;;;;;;8.55;4.65;;;;;;;;;;6293359;22;19992;-82
2022/06/09 01:28:01;;;;;;;6.13;4.53;;;;;;;;;;6275585;22;20004;-83
2022/06/09 01:30:34;;;;;;;7.90;4.75;;;;;;;;;;6274188;22;20008;-82
2022/06/09 01:33:11;;;;;;;7.28;4.93;;;;;;;;;;6276010;22;20087;-83
2022/06/09 01:35:41;;;;;;;5.47;4.50;;;;;;;;;;6224697;22;20003;-83
2022/06/09 01:38:07;;;;;;;;;;;;;;;;;;6249340;22;20057;-83
2022/06/09 01:40:32;;;;;;;8.35;4.82;;;;;;;;;;6274730;22;20309;-83
2022/06/09 01:42:58;;;;;;;9.00;4.65;;;;;;;;;;6275333;22;20038;-82
2022/06/09 01:45:24;;;;;;;7.80;4.75;;;;;;;;;;6283880;22;20003;-83
2022/06/09 01:47:52;;;;;;;8.77;4.57;;;;;;;;;;6280355;22;20068;-83
2022/06/09 01:50:30;;;;;;;7.63;5.00;;;;;;;;;;6274292;22;20008;-82
2022/06/09 01:52:56;;;;;;;5.63;4.70;;;;;;;;;;6251115;22;20030;-84
2022/06/09 01:55:22;;;;;;;8.85;5.22;;;;;;;;;;6248657;22;20406;-83
2022/06/09 01:57:51;;;;;;;6.35;4.97;;;;;;;;;;6248725;22;20065;-82
2022/06/09 02:00:19;;;;;;;10.57;5.50;;;;;;;;;;6249312;22;20050;-81
2022/06/09 02:02:49;;;;;;;10.25;5.43;;;;;;;;;;6249476;22;20133;-82
2022/06/09 02:05:24;;;;;;;9.57;5.35;;;;;;;;;;6291035;22;20030;-79
2022/06/09 02:07:51;;;;;;;7.78;5.60;;;;;;;;;;6286162;22;20007;-81
2022/06/09 02:10:33;;;;;;;7.70;5.05;;;;;;;;;;6228122;22;20015;-82
2022/06/09 02:13:12;;;;;;;6.03;4.80;;;;;;;;;;6275552;22;20011;-82
2022/06/09 02:15:40;;;;;;;5.85;4.88;;;;;;;;;;6249105;22;20089;-83
2022/06/09 02:18:14;;;;;;;6.22;4.90;;;;;;;;;;6247954;22;20010;-83
2022/06/09 02:20:42;;;;;;;5.65;4.80;;;;;;;;;;6273516;22;20415;-82
2022/06/09 02:23:11;;;;;;;6.25;4.80;;;;;;;;;;6248794;22;20000;-82
2022/06/09 02:25:38;;;;;;;9.48;4.95;;;;;;;;;;6276051;22;20020;-82
2022/06/09 02:28:05;;;;;;;6.57;5.05;;;;;;;;;;6274675;22;20004;-82
2022/06/09 02:30:31;;;;;;;7.50;5.05;;;;;;;;;;6281887;22;20004;-83
2022/06/09 02:32:56;;;;;;;8.57;5.35;;;;;;;;;;6251076;22;20026;-83
2022/06/09 02:35:22;;;;;;;7.72;5.03;;;;;;;;;;6275511;22;20000;-82
2022/06/09 02:37:47;;;;;;;8.95;5.15;;;;;;;;;;6274905;22;20004;-82
2022/06/09 02:40:13;;;;;;;6.07;5.13;;;;;;;;;;6275109;22;20084;-82
2022/06/09 02:42:38;;;;;;;7.45;5.30;;;;;;;;;;6222961;22;20003;-82
2022/06/09 02:45:06;;;;;;;6.07;4.95;;;;;;;;;;6289004;22;19992;-82
2022/06/09 02:47:32;;;;;;;14.32;5.38;;;;;;;;;;6280640;22;20038;-83
2022/06/09 02:49:58;;;;;;;5.50;4.95;;;;;;;;;;6258909;22;20415;-84
2022/06/09 02:52:23;;;;;;;7.30;5.00;;;;;;;;;;6278963;22;20006;-84
2022/06/09 02:54:49;;;;;;;6.35;5.18;;;;;;;;;;6277001;22;20336;-83
2022/06/09 02:57:14;;;;;;;10.15;5.50;;;;;;;;;;6274982;22;20010;-84
2022/06/09 02:59:40;;;;;;;8.65;5.00;;;;;;;;;;6273970;22;20010;-83
2022/06/09 03:02:05;;;;;;;8.23;5.20;;;;;;;;;;6275650;22;20346;-82
2022/06/09 03:04:31;;;;;;;6.40;4.97;;;;;;;;;;6282032;22;20366;-82
2022/06/09 03:06:56;;;;;;;6.05;4.90;;;;;;;;;;6230641;22;20343;-82
2022/06/09 03:09:22;;;;;;;10.13;6.13;;;;;;;;;;6279560;22;20011;-83
2022/06/09 03:11:48;;;;;;;7.90;5.43;;;;;;;;;;6276855;22;20004;-82
2022/06/09 03:14:14;;;;;;;8.65;5.18;;;;;;;;;;6279400;22;20030;-81
2022/06/09 03:16:40;;;;;;;7.82;5.25;;;;;;;;;;6276626;22;20012;-82
2022/06/09 03:19:05;;;;;;;8.15;5.45;;;;;;;;;;6273400;22;20790;-82
2022/06/09 03:21:31;;;;;;;8.82;5.65;;;;;;;;;;6275327;22;20411;-83
2022/06/09 03:23:58;;;;;;;6.20;5.35;;;;;;;;;;6277745;22;19999;-82
2022/06/09 03:26:24;;;;;;;7.93;5.35;;;;;;;;;;6289369;22;20003;-81
2022/06/09 03:28:51;;;;;;;9.10;5.70;;;;;;;;;;6278498;22;20111;-83
2022/06/09 03:31:17;;;;;;;8.65;5.35;;;;;;;;;;6225548;22;20448;-82
2022/06/09 03:33:43;;;;;;;13.18;5.70;;;;;;;;;;6277948;22;20011;-82
2022/06/09 03:36:08;;;;;;;7.53;5.35;;;;;;;;;;6277033;22;19999;-82
2022/06/09 03:38:34;;;;;;;13.55;5.70;;;;;;;;;;6280931;22;20133;-82
2022/06/09 03:40:59;;;;;;;9.00;5.97;;;;;;;;;;6278843;22;20010;-82
2022/06/09 03:43:25;;;;;;;7.72;5.82;;;;;;;;;;6250523;22;20061;-82
2022/06/09 03:45:50;;;;;;;9.55;5.85;;;;;;;;;;6284590;22;20069;-82
2022/06/09 03:48:16;;;;;;;9.32;6.05;;;;;;;;;;6287445;22;20100;-82
2022/06/09 03:50:41;;;;;;;10.88;5.75;;;;;;;;;;6276897;22;20426;-83
2022/06/09 03:53:06;;;;;;;10.90;6.53;;;;;;;;;;6277355;22;20000;-83
2022/06/09 03:55:32;;;;;;;12.55;6.47;;;;;;;;;;6277117;22;19996;-82
2022/06/09 03:57:57;;;;;;;10.20;7.07;;;;;;;;;;6276884;22;20103;-82
2022/06/09 04:00:25;;;;;;;10.30;7.00;;;;;;;;;;6282809;22;20027;-82
2022/06/09 04:02:50;;;;;;;10.82;6.85;;;;;;;;;;6289928;22;20046;-82
2022/06/09 04:05:16;;;;;;;16.17;8.13;;;;;;;;;;6276203;22;20000;-82
2022/06/09 04:07:41;;;;;;;11.05;7.50;;;;;;;;;;6290178;22;20039;-81
2022/06/09 04:10:08;;;;;;;14.75;7.25;;;;;;;;;;6280883;22;20004;-82
2022/06/09 04:12:34;;;;;;;17.17;7.05;;;;;;;;;;6276975;22;20057;-82
2022/06/09 04:15:00;;;;;;;13.70;6.20;;;;;;;;;;6276821;22;19992;-80
2022/06/09 04:17:25;;;;;;;11.23;6.68;;;;;;;;;;6276659;22;20083;-79
2022/06/09 04:19:51;;;;;;;11.70;6.93;;;;;;;;;;6276762;22;20003;-79
2022/06/09 04:22:16;;;;;;;9.20;6.65;;;;;;;;;;6278208;22;20038;-79
2022/06/09 04:24:43;;;;;;;13.15;6.40;;;;;;;;;;6250579;22;20423;-78
2022/06/09 04:27:10;;;;;;;10.20;6.70;;;;;;;;;;6285468;22;20035;-79
2022/06/09 04:29:35;;;;;;;8.15;6.13;;;;;;;;;;6277326;22;19999;-79
2022/06/09 04:32:01;;;;;;;11.65;6.95;;;;;;;;;;6276154;22;20010;-79
2022/06/09 04:34:26;;;;;;;7.60;5.78;;;;;;;;;;6276224;22;20079;-79
2022/06/09 04:36:52;;;;;;;14.65;6.25;;;;;;;;;;6249493;22;20015;-79
2022/06/09 04:39:17;;;;;;;9.93;5.60;;;;;;;;;;6249416;22;20003;-79
2022/06/09 04:41:42;;;;;;;9.15;6.10;;;;;;;;;;6276464;22;20010;-79
2022/06/09 04:44:08;;;;;;;8.77;5.90;;;;;;;;;;6285340;22;19999;-79
2022/06/09 04:46:34;;;;;;;6.80;4.82;;;;;;;;;;6291012;22;20047;-76
2022/06/09 04:49:03;;;;;;;6.88;4.90;;;;;;;;;;6289201;22;20047;-79
2022/06/09 04:51:31;;;;;;;6.78;5.05;;;;;;;;;;6297202;22;20025;-78
2022/06/09 04:54:32;;;;;;;8.32;5.00;;;;;;;;;;6230389;22;20081;-79
2022/06/09 04:56:57;;;;;;;12.30;5.10;;;;;;;;;;6232240;22;20046;-75
2022/06/09 04:59:23;;;;;;;10.40;4.43;;;;;;;;;;6223862;22;20000;-76
2022/06/09 05:01:49;;;;;;;6.97;4.20;;;;;;;;;;6276046;22;20091;-80
2022/06/09 05:04:17;;;;;;;25.98;14.75;;;;;;;;;;6248473;22;20011;-80
2022/06/09 05:06:43;;;;;;;12.07;7.47;;;;;;;;;;6247555;22;20006;-82
2022/06/09 05:09:19;;;;;;;;;;;;;;;;;;;;;
2022/06/09 05:11:57;;;;;;;9.18;4.45;;;;;;;;;;6262910;22;20031;-82
2022/06/09 05:14:25;;;;;;;10.48;5.97;;;;;;;;;;6256721;22;20024;-79
2022/06/09 05:16:50;;;;;;;7.88;5.20;;;;;;;;;;6253424;22;20127;-80
2022/06/09 05:19:16;;;;;;;12.18;7.43;;;;;;;;;;6251604;22;20345;-80
2022/06/09 05:21:42;;;;;;;14.73;5.53;;;;;;;;;;6275643;22;20006;-79
2022/06/09 05:24:08;;;;;;;10.23;4.53;;;;;;;;;;6271621;22;20000;-79
2022/06/09 05:26:33;;;;;;;12.68;3.95;;;;;;;;;;6271503;22;20003;-77
2022/06/09 05:28:59;;;;;;;13.73;5.35;;;;;;;;;;6283564;22;20027;-78
2022/06/09 05:31:24;;;;;;;5.13;3.90;;;;;;;;;;6270395;22;20004;-80
2022/06/09 05:33:50;;;;;;;7.43;3.90;;;;;;;;;;6275772;22;20004;-78
2022/06/09 05:36:16;;;;;;;13.07;8.05;;;;;;;;;;6283638;22;20008;-78
2022/06/09 05:46:54;;;;;;;7.05;4.07;;;;;;;;;;6276399;22;20084;-81
2022/06/09 05:49:20;;;;;;;6.25;4.05;;;;;;;;;;6278569;22;20003;-79
2022/06/09 05:51:49;;;;;;;7.15;4.30;;;;;;;;;;6277458;22;20011;-78
2022/06/09 05:54:15;;;;;;;8.75;5.13;;;;;;;;;;6251115;22;20011;-78
2022/06/09 05:56:41;;;;;;;13.27;8.18;;;;;;;;;;6274582;22;20014;-80
2022/06/09 05:59:06;;;;;;;7.78;6.50;;;;;;;;;;6268968;22;20012;-77
2022/06/09 06:01:32;;;;;;;11.13;4.88;;;;;;;;;;6269118;22;20323;-79
2022/06/09 06:03:58;;;;;;;8.60;4.43;;;;;;;;;;6272740;22;19996;-76
2022/06/09 06:06:36;;;;;;;6.75;4.65;;;;;;;;;;6270612;22;20003;-78
2022/06/09 06:09:07;;;;;;;8.20;5.38;;;;;;;;;;6278763;22;20426;-78
2022/06/09 06:11:34;;;;;;;9.18;6.30;;;;;;;;;;6275407;22;20003;-81
2022/06/09 06:13:59;;;;;;;15.45;6.85;;;;;;;;;;6274167;22;20031;-80
2022/06/09 06:16:25;;;;;;;10.63;5.13;;;;;;;;;;6272342;22;20010;-79
2022/06/09 06:18:50;;;;;;;6.47;4.50;;;;;;;;;;6271918;22;20710;-80
2022/06/09 06:21:16;;;;;;;8.20;4.57;;;;;;;;;;6271698;22;20067;-79
2022/06/09 06:23:42;;;;;;;7.93;4.22;;;;;;;;;;6275131;22;20004;-79
2022/06/09 06:26:07;;;;;;;7.13;3.78;;;;;;;;;;6247061;22;20004;-79
2022/06/09 06:28:33;;;;;;;12.95;4.28;;;;;;;;;;6279574;22;20014;-78
2022/06/09 06:30:59;;;;;;;9.00;6.03;;;;;;;;;;6281660;22;20004;-80
2022/06/09 06:33:24;;;;;;;7.88;3.97;;;;;;;;;;6275158;22;20000;-78
2022/06/09 06:35:50;;;;;;;8.20;4.00;;;;;;;;;;6276755;22;20004;-79
2022/06/09 06:38:15;;;;;;;9.90;4.68;;;;;;;;;;6223729;22;20089;-78
2022/06/09 06:40:41;;;;;;;13.88;4.43;;;;;;;;;;6223057;22;20641;-79
2022/06/09 06:43:10;;;;;;;10.82;4.63;;;;;;;;;;6273995;22;20114;-79
2022/06/09 06:45:44;;;;;;;11.90;4.65;;;;;;;;;;6220367;22;20358;-81
2022/06/09 06:48:14;;;;;;;12.18;4.90;;;;;;;;;;6242815;22;20004;-79
2022/06/09 06:50:41;;;;;;;11.45;4.28;;;;;;;;;;6279347;22;20000;-79
2022/06/09 06:53:07;;;;;;;7.05;4.13;;;;;;;;;;6248561;22;20015;-79
2022/06/09 06:55:36;;;;;;;12.13;4.88;;;;;;;;;;6270093;22;20019;-80
2022/06/09 06:58:04;;;;;;;6.22;4.40;;;;;;;;;;6270821;22;20585;-79
2022/06/09 07:00:30;;;;;;;8.25;4.20;;;;;;;;;;6269364;22;19992;-79
2022/06/09 07:02:56;;;;;;;15.60;4.57;;;;;;;;;;6272609;22;20027;-80
2022/06/09 07:05:22;;;;;;;8.07;4.35;;;;;;;;;;6268111;22;20324;-79
2022/06/09 07:07:47;;;;;;;9.07;5.07;;;;;;;;;;6265684;22;20008;-79
2022/06/09 07:10:13;;;;;;;11.15;6.30;;;;;;;;;;6270040;22;20008;-77
2022/06/09 07:12:39;;;;;;;8.73;4.40;;;;;;;;;;6269773;22;20082;-77
2022/06/09 07:15:05;;;;;;;10.63;5.47;;;;;;;;;;6245140;22;20007;-77
2022/06/09 07:17:30;;;;;;;10.02;5.55;;;;;;;;;;6270656;22;20291;-79
2022/06/09 07:19:56;;;;;;;24.27;16.02;;;;;;;;;;6243693;22;20000;-77
2022/06/09 07:22:22;;;;;;;13.57;6.30;;;;;;;;;;6269382;22;20004;-83
2022/06/09 07:24:47;;;;;;;9.10;5.93;;;;;;;;;;6219269;22;20419;-77
2022/06/09 07:27:13;;;;;;;14.38;8.85;;;;;;;;;;6249885;22;20015;-79
2022/06/09 07:29:39;;;;;;;15.65;4.97;;;;;;;;;;6251702;22;20056;-79
2022/06/09 07:32:05;;;;;;;8.82;4.82;;;;;;;;;;6253931;22;20330;-78
2022/06/09 07:34:31;;;;;;;19.08;7.10;;;;;;;;;;6250293;22;20426;-82
2022/06/09 07:36:56;;;;;;;11.77;7.15;;;;;;;;;;6245549;22;20003;-80
2022/06/09 07:39:22;;;;;;;4.85;3.45;;;;;;;;;;6272324;22;19996;-79
2022/06/09 07:41:47;;;;;;;14.38;9.48;;;;;;;;;;6218869;22;20410;-80
2022/06/09 07:44:13;;;;;;;12.20;7.20;;;;;;;;;;6268741;22;20098;-78
2022/06/09 07:46:39;;;;;;;10.82;7.03;;;;;;;;;;6244738;22;20011;-81
2022/06/09 07:49:06;;;;;;;7.97;3.63;;;;;;;;;;6273529;22;20022;-84
2022/06/09 07:51:32;;;;;;;3.92;3.22;;;;;;;;;;6234105;22;20037;-80
2022/06/09 07:53:58;;;;;;;9.20;3.47;;;;;;;;;;6256845;22;20008;-82
2022/06/09 07:56:24;;;;;;;9.32;3.40;;;;;;;;;;6271863;22;19999;-82
2022/06/09 07:58:49;;;;;;;5.03;4.00;;;;;;;;;;6222607;22;20018;-79
2022/06/09 08:01:17;;;;;;;10.30;3.42;;;;;;;;;;6245214;22;20104;-81
2022/06/09 08:03:42;;;;;;;3.30;2.97;;;;;;;;;;6246188;22;20019;-80
2022/06/09 08:06:18;;;;;;;4.93;3.22;;;;;;;;;;6244389;22;20538;-80
2022/06/09 08:08:44;;;;;;;3.53;3.00;;;;;;;;;;6273376;22;20015;-81
2022/06/09 08:11:09;;;;;;;8.32;3.28;;;;;;;;;;6278164;22;20069;-82
2022/06/09 08:13:36;;;;;;;5.03;3.40;;;;;;;;;;6235181;22;20014;-81
2022/06/09 08:16:02;;;;;;;11.65;8.18;;;;;;;;;;6248834;22;20012;-81
2022/06/09 08:18:30;;;;;;;8.57;4.00;;;;;;;;;;6246020;22;20098;-80
2022/06/09 08:20:56;;;;;;;18.10;8.93;;;;;;;;;;6247654;22;20006;-78
2022/06/09 08:23:30;;;;;;;4.72;4.00;;;;;;;;;;6250336;22;20090;-81
2022/06/09 08:25:58;;;;;;;6.50;3.20;;;;;;;;;;6224004;22;20003;-81
2022/06/09 08:28:32;;;;;;;4.68;3.78;;;;;;;;;;6227556;22;20414;-82
2022/06/09 08:31:04;;;;;;;11.55;3.78;;;;;;;;;;6229877;22;20004;-80
2022/06/09 08:33:29;;;;;;;5.93;3.28;;;;;;;;;;6261262;22;19995;-82
2022/06/09 08:35:55;;;;;;;4.88;3.45;;;;;;;;;;6281537;22;20004;-79
2022/06/09 08:38:21;;;;;;;4.63;3.47;;;;;;;;;;6251826;22;20007;-81
2022/06/09 08:41:17;;;;;;;5.07;2.97;;;;;;;;;;6250890;22;20011;-83
2022/06/09 08:44:07;;;;;;;7.65;3.33;;;;;;;;;;6280214;22;20049;-78
2022/06/09 08:46:58;;;;;;;11.40;3.53;;;;;;;;;;6279259;22;20014;-78
2022/06/09 08:49:42;;;;;;;5.63;3.67;;;;;;;;;;6274293;22;20010;-80
2022/06/09 08:52:42;;;;;;;4.15;3.22;;;;;;;;;;6275967;22;20055;-79
2022/06/09 08:55:20;;;;;;;6.50;4.35;;;;;;;;;;6265801;22;20582;-78
2022/06/09 08:57:46;;;;;;;6.85;4.88;;;;;;;;;;6273532;22;19999;-79
2022/06/09 09:00:17;;;;;;;9.50;4.50;;;;;;;;;;6226711;22;20082;-79
2022/06/09 09:03:04;;;;;;;6.15;3.10;;;;;;;;;;6276208;22;20023;-79
2022/06/09 09:05:40;;;;;;;4.75;3.88;;;;;;;;;;6223215;22;20072;-80
2022/06/09 09:08:09;;;;;;;6.43;3.17;;;;;;;;;;6246978;22;20419;-79
2022/06/09 09:10:47;;;;;;;8.27;3.63;;;;;;;;;;6247012;22;20026;-78
2022/06/09 09:13:21;;;;;;;8.07;3.53;;;;;;;;;;6254310;22;20007;-79
2022/06/09 09:15:56;;;;;;;5.20;3.40;;;;;;;;;;6277104;22;20049;-76
2022/06/09 09:18:35;;;;;;;5.90;3.35;;;;;;;;;;6246312;22;20400;-78
2022/06/09 09:21:22;;;;;;;8.35;3.42;;;;;;;;;;6274902;22;20038;-78
2022/06/09 09:24:02;;;;;;;5.88;3.38;;;;;;;;;;6233659;22;20003;-78
2022/06/09 09:26:55;;;;;;;4.10;3.50;;;;;;;;;;6289788;22;20000;-79
2022/06/09 09:29:22;;;;;;;4.65;3.22;;;;;;;;;;6281039;22;20034;-80
2022/06/09 09:31:56;;;;;;;6.55;3.35;;;;;;;;;;6246579;22;19999;-80
2022/06/09 09:34:34;;;;;;;7.65;4.10;;;;;;;;;;6232523;22;20004;-78
2022/06/09 09:37:05;;;;;;;5.05;3.13;;;;;;;;;;6249952;22;20007;-78
2022/06/09 09:39:46;;;;;;;6.00;3.58;;;;;;;;;;6245461;22;20082;-77
2022/06/09 09:42:17;;;;;;;8.20;3.10;;;;;;;;;;6247677;22;20022;-80
2022/06/09 09:45:08;;;;;;;4.93;3.05;;;;;;;;;;6250379;22;20003;-78
2022/06/09 09:47:44;;;;;;;7.00;2.95;;;;;;;;;;6226221;22;20004;-78
2022/06/09 09:50:32;;;;;;;6.22;3.35;;;;;;;;;;6248623;22;19999;-85
2022/06/09 09:53:05;;;;;;;6.25;3.30;;;;;;;;;;6275880;22;20003;-79
2022/06/09 09:55:39;;;;;;;7.53;3.22;;;;;;;;;;6246465;22;20080;-78
2022/06/09 09:58:14;;;;;;;4.65;3.10;;;;;;;;;;6271317;22;20457;-78
2022/06/09 10:00:40;;;;;;;5.10;2.92;;;;;;;;;;6271968;22;19999;-80
2022/06/09 10:08:48;;;;;;;4.88;2.83;;;;;;;;;;6277384;22;20062;-78
2022/06/09 10:14:38;;;;;;;7.53;3.65;;;;;;;;;;6267946;22;19998;-80
2022/06/09 10:17:19;;;;;;;5.55;3.28;;;;;;;;;;6267685;22;20065;-79
2022/06/09 10:19:48;;;;;;;10.15;2.80;;;;;;;;;;6248402;22;20000;-79
2022/06/09 10:22:21;;;;;;;5.05;2.90;;;;;;;;;;6250492;22;20003;-80
2022/06/09 10:24:50;;;;;;;5.78;3.03;;;;;;;;;;6222986;22;20029;-80
2022/06/09 10:27:17;;;;;;;3.85;3.00;;;;;;;;;;6246800;22;20004;-80
2022/06/09 10:30:20;;;;;;;4.85;2.70;;;;;;;;;;6246750;22;20336;-79
2022/06/09 10:32:49;;;;;;;5.05;3.00;;;;;;;;;;6206157;22;20008;-79
2022/06/09 10:35:18;;;;;;;;;;;;;;;;;;6239479;22;20000;-81
2022/06/09 10:38:02;;;;;;;4.15;2.80;;;;;;;;;;6230774;22;19907;-82
2022/06/09 10:40:57;;;;;;;5.53;2.80;;;;;;;;;;6281146;22;20354;-84
2022/06/09 10:43:48;;;;;;;3.42;2.80;;;;;;;;;;6283071;22;20000;-83
2022/06/09 10:46:32;;;;;;;6.55;2.42;;;;;;;;;;6253167;22;20010;-83
2022/06/09 10:55:19;;;;;;;9.43;3.28;;;;;;;;;;6293640;22;20018;-84
2022/06/09 10:58:24;;;;;;;6.50;3.05;;;;;;;;;;6277868;22;20015;-83
2022/06/09 11:00:50;;;;;;;5.63;3.17;;;;;;;;;;6247222;22;20004;-80
2022/06/09 11:03:44;;;;;;;3.95;2.75;;;;;;;;;;6248360;22;20315;-84
2022/06/09 11:06:19;;;;;;;8.13;2.58;;;;;;;;;;6261235;22;20003;-83
2022/06/09 11:09:11;;;;;;;6.45;3.13;;;;;;;;;;6285725;22;20019;-82
2022/06/09 11:11:42;;;;;;;6.18;3.30;;;;;;;;;;6277964;22;20092;-82
2022/06/09 11:14:44;;;;;;;8.57;2.72;;;;;;;;;;6251024;22;20410;-82
2022/06/09 11:17:17;;;;;;;4.72;2.95;;;;;;;;;;6225384;22;20127;-84
2022/06/09 11:20:15;;;;;;;8.88;3.10;;;;;;;;;;6281821;22;20004;-83
2022/06/09 11:23:11;;;;;;;10.43;3.20;;;;;;;;;;6275705;22;20004;-82
2022/06/09 11:26:01;;;;;;;15.45;3.17;;;;;;;;;;6246227;22;20406;-85
2022/06/09 11:29:02;;;;;;;5.00;2.47;;;;;;;;;;6243792;22;20269;-82
2022/06/09 11:31:40;;;;;;;5.43;2.45;;;;;;;;;;6211956;22;20015;-85
2022/06/09 11:34:26;;;;;;;4.07;2.70;;;;;;;;;;6277263;22;19999;-82
2022/06/09 11:37:10;;;;;;;6.28;3.10;;;;;;;;;;6273016;22;20008;-83
2022/06/09 11:39:51;;;;;;;4.43;2.50;;;;;;;;;;6275253;22;19999;-82
2022/06/09 11:42:49;;;;;;;6.10;3.05;;;;;;;;;;6276257;22;20478;-83
2022/06/09 11:45:23;;;;;;;5.85;2.65;;;;;;;;;;6249032;22;20003;-81
2022/06/09 11:47:48;;;;;;;6.70;2.60;;;;;;;;;;6221401;22;20007;-84
2022/06/09 11:50:17;;;;;;;2.72;2.53;;;;;;;;;;6248542;22;20000;-83
2022/06/09 11:52:46;;;;;;;11.15;2.83;;;;;;;;;;6223807;22;20031;-83
2022/06/09 11:58:33;;;;;;;4.22;2.80;;;;;;;;;;6259516;22;20018;-83
2022/06/09 12:01:23;;;;;;;8.98;3.15;;;;;;;;;;6282150;22;19999;-82
2022/06/09 12:04:08;;;;;;;;;;;;;;;;;;6258993;22;20027;-81
2022/06/09 12:06:53;;;;;;;5.10;3.03;;;;;;;;;;6253588;22;19914;-80
2022/06/09 12:09:34;;;;;;;3.33;2.90;;;;;;;;;;6282430;22;20031;-81
2022/06/09 12:12:25;;;;;;;3.67;3.10;;;;;;;;;;6253401;22;20004;-82
2022/06/09 12:15:16;;;;;;;10.40;3.10;;;;;;;;;;6261275;22;20008;-82
2022/06/09 12:18:08;;;;;;;3.05;2.75;;;;;;;;;;6253865;22;20057;-84
2022/06/09 12:21:15;;;;;;;3.90;2.22;;;;;;;;;;6278297;22;20077;-83
2022/06/09 12:23:52;;;;;;;6.10;2.60;;;;;;;;;;6277106;22;20103;-82
2022/06/09 12:26:21;;;;;;;6.18;2.60;;;;;;;;;;6278495;22;20071;-82
2022/06/09 12:28:49;;;;;;;6.93;2.78;;;;;;;;;;6232261;22;20026;-84
2022/06/09 12:31:23;;;;;;;2.97;2.25;;;;;;;;;;6276281;22;20000;-83
2022/06/09 12:34:10;;;;;;;5.47;2.67;;;;;;;;;;6251614;22;20031;-84
2022/06/09 12:36:56;;;;;;;2.60;2.40;;;;;;;;;;6282675;22;20007;-82
2022/06/09 12:39:29;;;;;;;8.65;2.58;;;;;;;;;;6225622;22;20423;-83
2022/06/09 12:42:06;;;;;;;5.75;2.47;;;;;;;;;;6251677;22;20010;-81
2022/06/09 12:44:37;;;;;;;4.75;3.42;;;;;;;;;;6251452;22;20079;-81
2022/06/09 12:47:17;;;;;;;4.38;2.70;;;;;;;;;;6249194;22;20007;-83
2022/06/09 12:49:43;;;;;;;9.02;2.60;;;;;;;;;;6287026;22;19999;-80
2022/06/09 12:52:33;;;;;;;3.78;2.63;;;;;;;;;;6289352;22;19987;-82
2022/06/09 12:55:02;;;;;;;8.43;2.72;;;;;;;;;;6250482;22;20093;-82
2022/06/09 12:57:32;;;;;;;4.67;2.80;;;;;;;;;;6230717;22;20015;-83
2022/06/09 13:00:16;;;;;;;2.67;2.47;;;;;;;;;;6249291;22;20007;-84
2022/06/09 13:02:42;;;;;;;8.73;5.55;;;;;;;;;;6276674;22;20000;-83
2022/06/09 13:05:17;;;;;;;3.65;2.88;;;;;;;;;;6276802;22;20003;-83
2022/06/09 13:07:54;;;;;;;7.13;2.80;;;;;;;;;;6276061;22;20015;-82
2022/06/09 13:10:35;;;;;;;5.80;3.03;;;;;;;;;;6274919;22;20011;-84
2022/06/09 13:13:30;;;;;;;6.85;2.80;;;;;;;;;;6227009;22;20345;-80
2022/06/09 13:16:01;;;;;;;7.88;4.95;;;;;;;;;;6203302;22;20398;-81
2022/06/09 13:18:33;;;;;;;7.88;3.65;;;;;;;;;;6256351;22;20000;-85
2022/06/09 13:21:24;;;;;;;8.57;3.28;;;;;;;;;;6228416;22;20423;-81
2022/06/09 13:23:53;;;;;;;13.43;8.20;;;;;;;;;;6245264;22;20000;-81
2022/06/09 13:26:27;;;;;;;23.92;14.07;;;;;;;;;;6248838;22;20016;-78
2022/06/09 13:28:55;;;;;;;106.10;65.50;;;;;;;;;;6249168;22;20014;-80
2022/06/09 13:31:30;;;;;;;30.77;20.55;;;;;;;;;;6248857;22;20000;-80
2022/06/09 13:34:03;;;;;;;6.68;4.03;;;;;;;;;;6278122;22;19992;-80
2022/06/09 13:36:38;;;;;;;65.90;41.55;;;;;;;;;;6294392;22;20070;-80
2022/06/09 13:39:29;;;;;;;26.02;16.27;;;;;;;;;;6280437;22;20016;-79
2022/06/09 13:42:13;;;;;;;45.65;30.33;;;;;;;;;;6279749;22;20012;-82
2022/06/09 13:44:46;;;;;;;6.90;3.15;;;;;;;;;;6275673;22;20066;-81
2022/06/09 13:47:26;;;;;;;28.23;17.92;;;;;;;;;;6248934;22;20431;-81
2022/06/09 13:49:58;;;;;;;10.27;5.47;;;;;;;;;;6224621;22;20010;-81
2022/06/09 13:52:33;;;;;;;17.83;11.35;;;;;;;;;;6275430;22;20040;-82
2022/06/09 13:54:59;;;;;;;8.75;4.80;;;;;;;;;;6248965;22;20000;-81
2022/06/09 13:57:27;;;;;;;9.90;5.18;;;;;;;;;;6256911;22;20027;-82
2022/06/09 13:59:53;;;;;;;9.57;4.78;;;;;;;;;;6285665;22;20014;-82
2022/06/09 14:02:21;;;;;;;14.55;7.82;;;;;;;;;;6250686;22;20002;-84
2022/06/09 14:04:46;;;;;;;11.80;6.78;;;;;;;;;;6248548;22;20000;-82
2022/06/09 14:07:20;;;;;;;28.13;17.35;;;;;;;;;;6275569;22;20011;-81
2022/06/09 14:09:46;;;;;;;4.18;3.15;;;;;;;;;;6264077;22;19999;-81
2022/06/09 14:12:12;;;;;;;3.88;3.22;;;;;;;;;;6274683;22;20058;-81
2022/06/09 14:14:38;;;;;;;8.80;4.38;;;;;;;;;;6276649;22;20003;-83
2022/06/09 14:17:04;;;;;;;4.53;3.17;;;;;;;;;;6281675;22;20007;-81
2022/06/09 14:19:29;;;;;;;4.47;3.25;;;;;;;;;;6283218;22;20372;-81
2022/06/09 14:21:54;;;;;;;13.68;8.10;;;;;;;;;;6276731;22;19999;-79
2022/06/09 14:24:23;;;;;;;4.70;3.45;;;;;;;;;;6278695;22;20043;-81
2022/06/09 14:26:50;;;;;;;17.92;7.93;;;;;;;;;;6270453;22;20000;-80
2022/06/09 14:29:18;;;;;;;6.28;3.33;;;;;;;;;;6274523;22;20449;-80
2022/06/09 14:31:45;;;;;;;5.38;3.10;;;;;;;;;;6279271;22;20003;-81
2022/06/09 14:34:11;;;;;;;7.45;3.70;;;;;;;;;;6274842;22;20133;-80
2022/06/09 14:36:36;;;;;;;7.70;3.22;;;;;;;;;;6273556;22;20413;-79
2022/06/09 14:39:04;;;;;;;3.88;3.00;;;;;;;;;;6280155;22;20373;-81
2022/06/09 14:41:30;;;;;;;4.28;3.40;;;;;;;;;;6247198;22;19999;-81
2022/06/09 14:43:55;;;;;;;3.25;2.90;;;;;;;;;;6274080;22;20019;-83
2022/06/09 14:46:32;;;;;;;9.30;3.42;;;;;;;;;;6282086;22;20026;-81
2022/06/09 14:48:58;;;;;;;7.78;3.20;;;;;;;;;;6271879;22;20011;-82
2022/06/09 14:51:23;;;;;;;5.93;3.15;;;;;;;;;;6274477;22;20079;-81
2022/06/09 14:53:49;;;;;;;9.02;3.25;;;;;;;;;;6274955;22;20004;-81
2022/06/09 14:56:17;;;;;;;8.05;3.80;;;;;;;;;;6274594;22;20102;-82
2022/06/09 14:58:42;;;;;;;4.28;3.10;;;;;;;;;;6282105;22;20063;-81
2022/06/09 15:01:11;;;;;;;4.03;3.08;;;;;;;;;;6277447;22;20007;-82
2022/06/09 15:03:37;;;;;;;3.53;2.87;;;;;;;;;;6274842;22;20373;-82
2022/06/09 15:06:05;;;;;;;3.65;3.00;;;;;;;;;;6274977;22;19999;-82
2022/06/09 15:08:31;;;;;;;3.92;3.17;;;;;;;;;;6277195;22;20011;-80
2022/06/09 15:10:56;;;;;;;3.78;3.35;;;;;;;;;;6252628;22;20083;-82
2022/06/09 15:13:22;;;;;;;5.97;3.42;;;;;;;;;;6275024;22;20004;-82
2022/06/09 15:15:48;;;;;;;3.88;3.15;;;;;;;;;;6248251;22;20010;-81
2022/06/09 15:18:22;;;;;;;7.70;3.50;;;;;;;;;;6282100;22;20004;-82
2022/06/09 15:20:48;;;;;;;6.68;3.03;;;;;;;;;;6289267;22;20018;-82
2022/06/09 15:23:14;;;;;;;5.00;3.10;;;;;;;;;;6250467;22;20000;-82
2022/06/09 15:25:40;;;;;;;6.28;3.10;;;;;;;;;;6277077;22;20012;-82
2022/06/09 15:28:06;;;;;;;5.72;3.08;;;;;;;;;;6250059;22;20004;-82
2022/06/09 15:30:34;;;;;;;6.53;3.10;;;;;;;;;;6276857;22;20004;-83
2022/06/09 15:33:02;;;;;;;13.43;4.13;;;;;;;;;;6257412;22;20046;-82